Time;durP1;ratioP1;P1;durP2;ratioP2;P2;SDS_P1;SDS_P2;PMS_P1;PMS_P2;Temp;Humidity;BMP_temperature;BMP_pressure;BME280_temperature;BME280_humidity;BME280_pressure;Samples;Min_cycle;Max_cycle;Signal;HPM_P1;HPM_P2
2023/06/24 00:00:41;;;;;;;12.50;11.20;;;;;;;24.05;100.00;99327.48;108492;1254;72535;-67
2023/06/24 00:03:08;;;;;;;;;;;;;;;24.01;100.00;99326.78;108472;1253;59539;-67
2023/06/24 00:05:38;;;;;;;12.40;11.40;;;;;;;23.96;100.00;99327.83;108541;1252;59586;-67
2023/06/24 00:08:10;;;;;;;12.00;11.00;;;;;;;23.90;100.00;99334.54;108518;1252;74030;-67
2023/06/24 00:10:38;;;;;;;11.40;10.10;;;;;;;23.89;100.00;99330.48;108497;1253;69064;-66
2023/06/24 00:13:07;;;;;;;11.50;9.80;;;;;;;23.99;100.00;99327.02;108456;1254;72431;-68
2023/06/24 00:15:34;;;;;;;11.00;10.00;;;;;;;23.99;100.00;99321.44;108325;1254;59787;-67
2023/06/24 00:18:05;;;;;;;11.00;10.10;;;;;;;23.99;100.00;99322.58;108540;1253;58637;-67
2023/06/24 00:20:34;;;;;;;11.60;10.50;;;;;;;23.95;100.00;99322.21;108481;1253;74550;-67
2023/06/24 00:23:02;;;;;;;12.10;9.90;;;;;;;23.93;100.00;99322.98;108308;1253;69133;-68
2023/06/24 00:25:30;;;;;;;10.10;9.10;;;;;;;24.03;100.00;99324.14;108533;1253;73086;-67
2023/06/24 00:27:58;;;;;;;11.10;10.20;;;;;;;24.10;100.00;99328.54;108495;1254;60425;-67
2023/06/24 00:30:26;;;;;;;;;;;;;;;24.10;100.00;99328.48;108508;1253;59855;-68
2023/06/24 00:32:53;;;;;;;11.90;9.80;;;;;;;24.09;100.00;99329.92;108497;1254;73803;-68
2023/06/24 00:35:21;;;;;;;12.30;10.60;;;;;;;24.07;100.00;99320.98;108521;1253;69261;-68
2023/06/24 00:37:49;;;;;;;10.80;9.80;;;;;;;24.07;100.00;99315.77;108354;1254;72872;-68
2023/06/24 00:40:17;;;;;;;11.50;10.30;;;;;;;24.06;100.00;99315.66;108350;1254;59882;-69
2023/06/24 00:42:45;;;;;;;12.00;10.80;;;;;;;24.09;100.00;99314.98;108536;1252;59893;-68
2023/06/24 00:45:13;;;;;;;13.60;10.20;;;;;;;24.04;100.00;99307.13;108386;1254;73732;-67
2023/06/24 00:47:41;;;;;;;;;;;;;;;23.96;100.00;99302.80;108366;1252;68491;-66
2023/06/24 00:50:11;;;;;;;11.70;10.60;;;;;;;23.96;100.00;99298.17;108419;1253;72359;-67
2023/06/24 00:52:42;;;;;;;12.40;11.00;;;;;;;23.95;100.00;99290.04;108356;1253;59855;-66
2023/06/24 00:55:12;;;;;;;13.20;11.10;;;;;;;23.93;100.00;99292.08;108233;1252;59835;-67
2023/06/24 00:57:44;;;;;;;11.70;10.60;;;;;;;23.88;100.00;99296.05;108408;1254;72953;-67
2023/06/24 01:00:16;;;;;;;12.50;11.20;;;;;;;23.88;100.00;99293.08;108266;1253;69867;-67
2023/06/24 01:02:44;;;;;;;12.80;11.50;;;;;;;23.86;100.00;99291.46;108351;1254;72212;-66
2023/06/24 01:05:12;;;;;;;;;;;;;;;23.86;100.00;99291.43;108396;1253;60824;-67
2023/06/24 01:07:43;;;;;;;;;;;;;;;23.76;100.00;99285.98;108437;1254;60425;-67
2023/06/24 01:10:14;;;;;;;12.90;11.40;;;;;;;23.76;100.00;99285.74;108435;1254;73567;-67
2023/06/24 01:12:44;;;;;;;11.10;10.00;;;;;;;23.73;100.00;99287.06;108544;1253;68172;-67
2023/06/24 01:15:11;;;;;;;12.30;11.10;;;;;;;23.75;100.00;99288.45;108451;1254;71995;-68
2023/06/24 01:18:32;;;;;;;14.90;10.40;;;;;;;23.79;100.00;99295.08;108531;1252;60982;-68
2023/06/24 01:21:02;;;;;;;15.30;10.90;;;;;;;23.73;100.00;99297.45;107647;1259;59700;-67
2023/06/24 01:23:56;;;;;;;11.10;10.30;;;;;;;23.67;100.00;99300.74;108325;1252;73924;-67
2023/06/24 01:27:01;;;;;;;14.30;11.20;;;;;;;23.65;100.00;99301.27;108507;1254;69398;-67
2023/06/24 01:30:21;;;;;;;16.60;11.20;;;;;;;23.68;100.00;99295.09;108535;1253;72388;-66
2023/06/24 01:33:01;;;;;;;11.80;10.70;;;;;;;23.68;100.00;99290.56;107524;1260;58854;-66
2023/06/24 01:35:31;;;;;;;11.20;10.10;;;;;;;23.66;100.00;99293.20;107888;1258;60752;-66
2023/06/24 01:38:11;;;;;;;12.50;10.60;;;;;;;23.63;100.00;99298.15;107890;1254;73507;-66
2023/06/24 01:40:42;;;;;;;11.00;9.90;;;;;;;23.66;100.00;99296.16;108338;1253;69765;-67
2023/06/24 01:43:10;;;;;;;13.10;10.70;;;;;;;23.69;100.00;99295.03;108094;1252;72510;-67
2023/06/24 01:45:41;;;;;;;;;;;;;;;23.66;100.00;99300.98;108440;1252;58972;-67
2023/06/24 01:48:13;;;;;;;11.20;9.60;;;;;;;23.61;100.00;99309.39;108554;1252;59703;-67
2023/06/24 01:50:48;;;;;;;10.60;9.60;;;;;;;23.60;100.00;99314.19;108507;1254;74035;-67
2023/06/24 01:53:17;;;;;;;14.20;10.70;;;;;;;23.60;100.00;99312.52;108281;1252;69077;-67
2023/06/24 01:55:45;;;;;;;11.40;9.90;;;;;;;23.56;100.00;99314.52;108103;1252;72624;-63
2023/06/24 01:58:14;;;;;;;10.30;9.30;;;;;;;23.54;100.00;99316.00;108378;1253;62292;-66
2023/06/24 02:00:42;;;;;;;;;;;;;;;23.59;100.00;99318.93;108021;1253;59694;-66
2023/06/24 02:03:10;;;;;;;10.90;9.80;;;;;;;23.58;100.00;99318.98;108483;1253;74074;-66
2023/06/24 02:05:39;;;;;;;10.30;9.00;;;;;;;23.59;100.00;99322.14;108280;1252;69256;-65
2023/06/24 02:08:09;;;;;;;10.30;9.40;;;;;;;23.61;100.00;99328.42;108339;1252;72531;-66
2023/06/24 02:10:37;;;;;;;9.70;8.90;;;;;;;23.59;100.00;99326.12;108403;1253;58646;-65
2023/06/24 02:13:05;;;;;;;10.60;9.60;;;;;;;23.61;100.00;99331.43;107939;1254;59771;-65
2023/06/24 02:15:33;;;;;;;10.50;9.30;;;;;;;23.60;100.00;99330.66;108105;1253;73661;-65
2023/06/24 02:18:02;;;;;;;10.60;9.30;;;;;;;23.62;100.00;99333.96;108182;1252;69182;-65
2023/06/24 02:20:30;;;;;;;9.40;8.50;;;;;;;23.68;100.00;99337.12;108354;1253;71473;-65
2023/06/24 02:22:57;;;;;;;9.80;9.00;;;;;;;23.69;100.00;99339.14;108300;1254;59768;-65
2023/06/24 02:25:25;;;;;;;;;;;;;;;23.70;100.00;99336.77;108448;1252;59951;-65
2023/06/24 02:27:53;;;;;;;9.90;8.80;;;;;;;23.73;100.00;99335.55;108513;1253;74484;-66
2023/06/24 02:30:22;;;;;;;9.90;8.00;;;;;;;23.82;100.00;99335.52;108505;1253;68076;-65
2023/06/24 02:32:49;;;;;;;;;;;;;;;23.84;100.00;99337.15;108425;1253;72351;-66
2023/06/24 02:35:20;;;;;;;10.50;9.40;;;;;;;23.79;100.00;99342.48;108571;1253;59732;-66
2023/06/24 02:37:48;;;;;;;13.10;9.30;;;;;;;23.72;100.00;99346.75;108493;1252;59909;-65
2023/06/24 02:40:16;;;;;;;12.10;9.20;;;;;;;23.66;100.00;99356.64;108462;1252;74508;-66
2023/06/24 02:42:44;;;;;;;11.50;8.90;;;;;;;23.65;100.00;99350.26;108489;1253;68103;-66
2023/06/24 02:45:11;;;;;;;10.20;8.20;;;;;;;23.64;100.00;99352.19;108504;1252;71402;-66
2023/06/24 02:47:40;;;;;;;;;;;;;;;23.62;100.00;99352.20;108368;1254;61756;-66
2023/06/24 02:50:09;;;;;;;13.60;8.60;;;;;;;23.58;100.00;99352.62;108297;1252;59514;-65
2023/06/24 02:52:37;;;;;;;13.40;8.80;;;;;;;23.51;100.00;99350.95;108290;1253;73947;-66
2023/06/24 02:55:07;;;;;;;13.30;8.60;;;;;;;23.54;100.00;99352.02;108353;1253;70334;-65
2023/06/24 02:57:39;;;;;;;9.10;8.20;;;;;;;23.60;100.00;99351.15;108185;1252;71270;-65
2023/06/24 03:00:16;;;;;;;15.90;8.50;;;;;;;23.62;100.00;99349.52;108298;1253;60866;-65
2023/06/24 03:03:04;;;;;;;8.70;7.90;;;;;;;23.56;100.00;99345.66;108469;1253;59686;-65
2023/06/24 03:05:32;;;;;;;13.40;8.20;;;;;;;23.58;100.00;99337.95;107943;1253;74181;-65
2023/06/24 03:08:03;;;;;;;8.90;8.00;;;;;;;23.67;100.00;99335.10;108224;1253;69802;-65
2023/06/24 03:10:31;;;;;;;10.80;7.50;;;;;;;23.77;100.00;99337.27;108352;1254;72318;-64
2023/06/24 03:12:59;;;;;;;8.10;7.40;;;;;;;23.80;100.00;99342.58;108429;1253;59790;-64
2023/06/24 03:15:32;;;;;;;21.80;8.50;;;;;;;23.79;100.00;99352.88;108471;1252;59785;-65
2023/06/24 03:18:01;;;;;;;13.00;7.70;;;;;;;23.82;100.00;99356.17;108284;1252;73592;-65
2023/06/24 03:20:37;;;;;;;;;;;;;;;23.91;100.00;99361.83;108363;1253;69199;-65
2023/06/24 03:23:08;;;;;;;9.40;8.20;;;;;;;23.92;100.00;99364.79;108413;1253;71478;-65
2023/06/24 03:25:35;;;;;;;10.50;8.10;;;;;;;23.89;100.00;99366.48;108346;1254;60241;-64
2023/06/24 03:28:07;;;;;;;13.10;8.50;;;;;;;23.87;100.00;99372.10;108254;1253;59821;-66
2023/06/24 03:30:38;;;;;;;9.80;7.90;;;;;;;23.83;100.00;99370.50;108416;1253;73706;-65
2023/06/24 03:33:06;;;;;;;14.00;7.30;;;;;;;23.81;100.00;99364.80;108424;1252;69642;-66
2023/06/24 03:35:34;;;;;;;10.20;6.80;;;;;;;23.79;100.00;99364.46;108300;1254;72470;-65
2023/06/24 03:38:04;;;;;;;10.00;7.40;;;;;;;23.71;100.00;99360.42;108333;1253;62011;-67
2023/06/24 03:40:32;;;;;;;8.90;7.40;;;;;;;23.76;100.00;99351.54;108307;1254;59515;-65
2023/06/24 03:43:00;;;;;;;8.00;7.30;;;;;;;23.78;100.00;99350.84;108579;1252;72609;-69
2023/06/24 03:45:28;;;;;;;10.10;7.80;;;;;;;23.75;100.00;99351.45;108405;1252;69491;-64
2023/06/24 03:47:55;;;;;;;13.10;7.60;;;;;;;23.78;100.00;99352.92;108271;1256;72466;-64
2023/06/24 03:50:23;;;;;;;;;;;;;;;23.84;100.00;99359.20;108389;1253;61396;-64
2023/06/24 03:52:51;;;;;;;28.40;10.80;;;;;;;23.84;100.00;99364.00;108326;1252;59884;-63
2023/06/24 03:55:19;;;;;;;20.40;9.20;;;;;;;23.82;100.00;99363.09;108293;1253;73677;-64
2023/06/24 03:57:46;;;;;;;16.10;8.70;;;;;;;23.79;100.00;99359.70;108299;1252;69788;-63
2023/06/24 04:00:20;;;;;;;15.10;7.30;;;;;;;23.79;100.00;99360.71;108382;1252;72966;-65
2023/06/24 04:02:48;;;;;;;34.00;10.00;;;;;;;23.80;100.00;99360.23;108400;1253;61769;-65
2023/06/24 04:05:16;;;;;;;;;;;;;;;23.82;100.00;99371.87;108325;1252;60347;-65
2023/06/24 04:07:46;;;;;;;17.00;8.60;;;;;;;23.79;100.00;99377.04;108518;1253;74485;-65
2023/06/24 04:10:18;;;;;;;11.80;6.60;;;;;;;23.76;100.00;99374.76;108536;1253;69823;-64
2023/06/24 04:12:46;;;;;;;18.20;8.80;;;;;;;23.85;100.00;99376.89;108507;1252;73373;-65
2023/06/24 04:15:13;;;;;;;;;;;;;;;23.85;100.00;99386.92;108301;1252;59792;-65
2023/06/24 04:17:41;;;;;;;11.10;6.60;;;;;;;23.71;100.00;99379.20;108352;1253;59675;-65
2023/06/24 04:20:09;;;;;;;;;;;;;;;23.78;100.00;99379.27;108275;1252;73568;-65
2023/06/24 04:22:39;;;;;;;21.20;7.10;;;;;;;23.83;100.00;99380.86;108414;1252;69294;-65
2023/06/24 04:28:16;;;;;;;16.90;7.70;;;;;;;23.72;100.00;99374.27;100970;1297;616090;-63
2023/06/24 04:30:43;;;;;;;35.80;10.70;;;;;;;24.08;100.00;99374.42;103781;1266;59409;-66
2023/06/24 04:33:10;;;;;;;43.00;12.40;;;;;;;24.10;100.00;99371.10;103472;1266;60127;-65
2023/06/24 04:35:38;;;;;;;19.40;8.20;;;;;;;24.16;100.00;99367.64;103437;1272;71800;-64
2023/06/24 04:38:05;;;;;;;37.20;9.80;;;;;;;24.28;100.00;99360.13;103605;1266;69994;-65
2023/06/24 04:40:34;;;;;;;33.30;9.30;;;;;;;24.33;100.00;99362.29;103249;1270;387487;-65
2023/06/24 04:43:01;;;;;;;35.40;10.50;;;;;;;24.36;100.00;99363.98;103887;1267;61890;-65
2023/06/24 04:45:30;;;;;;;21.50;8.80;;;;;;;24.50;100.00;99368.25;103824;1268;59875;-64
2023/06/24 04:47:57;;;;;;;26.70;9.30;;;;;;;24.61;100.00;99370.33;103988;1264;71857;-65
2023/06/24 04:50:24;;;;;;;16.30;6.70;;;;;;;24.60;100.00;99375.42;103721;1267;69319;-65
2023/06/24 04:52:56;;;;;;;15.60;7.00;;;;;;;24.57;100.00;99372.55;103913;1267;73024;-65
2023/06/24 04:55:23;;;;;;;8.60;5.60;;;;;;;24.60;100.00;99370.83;103950;1263;61432;-64
2023/06/24 04:57:50;;;;;;;11.40;5.90;;;;;;;24.71;100.00;99356.37;107029;1263;60282;-63
2023/06/24 05:00:17;;;;;;;12.30;6.40;;;;;;;24.82;100.00;99353.92;105887;1264;72632;-62
2023/06/24 05:02:45;;;;;;;12.60;5.80;;;;;;;24.93;100.00;99354.25;104103;1263;69909;-62
2023/06/24 05:05:12;;;;;;;;;;;;;;;24.96;100.00;99349.04;104030;1264;72168;-62
2023/06/24 05:07:39;;;;;;;8.30;5.10;;;;;;;24.94;100.00;99351.02;104061;1264;61476;-64
2023/06/24 05:10:07;;;;;;;7.70;4.80;;;;;;;24.99;100.00;99343.67;104221;1265;60121;-64
2023/06/24 05:12:34;;;;;;;29.50;7.20;;;;;;;25.04;100.00;99337.52;104021;1264;72950;-63
2023/06/24 05:15:02;;;;;;;7.20;4.60;;;;;;;25.10;100.00;99337.09;103964;1268;68679;-64
2023/06/24 05:17:29;;;;;;;;;;;;;;;25.11;100.00;99342.54;103984;1267;71997;-64
2023/06/24 05:19:56;;;;;;;7.90;5.00;;;;;;;25.21;100.00;99343.94;103894;1269;61943;-63
2023/06/24 05:22:23;;;;;;;8.40;4.90;;;;;;;25.28;100.00;99347.02;103792;1266;59762;-64
2023/06/24 05:24:50;;;;;;;10.20;5.30;;;;;;;25.30;100.00;99346.15;103877;1268;72562;-64
2023/06/24 05:27:17;;;;;;;14.80;5.50;;;;;;;25.24;100.00;99351.25;104038;1266;70575;-64
2023/06/24 05:29:44;;;;;;;10.80;4.90;;;;;;;25.22;100.00;99346.77;103891;1267;73428;-63
2023/06/24 05:32:11;;;;;;;10.60;5.10;;;;;;;25.32;100.00;99348.37;103993;1264;62108;-63
2023/06/24 05:34:38;;;;;;;23.10;6.30;;;;;;;25.24;100.00;99352.45;103875;1267;59901;-66
2023/06/24 05:37:05;;;;;;;11.20;5.10;;;;;;;25.22;100.00;99349.66;104420;1265;72234;-65
2023/06/24 05:39:32;;;;;;;8.70;4.80;;;;;;;25.21;100.00;99352.98;103989;1267;69502;-65
2023/06/24 05:41:59;;;;;;;6.90;4.60;;;;;;;25.26;100.00;99354.58;103995;1264;73124;-65
2023/06/24 05:44:26;;;;;;;15.50;5.00;;;;;;;25.32;100.00;99355.40;103869;1264;62002;-64
2023/06/24 05:46:53;;;;;;;36.00;9.40;;;;;;;25.35;100.00;99350.73;104116;1266;59792;-65
2023/06/24 05:49:20;;;;;;;6.80;4.70;;;;;;;25.33;100.00;99350.31;103879;1268;73321;-65
2023/06/24 05:51:46;;;;;;;20.50;5.90;;;;;;;25.29;100.00;99350.91;103884;1268;70617;-65
2023/06/24 05:54:13;;;;;;;14.00;5.40;;;;;;;25.39;100.00;99347.99;103971;1275;73495;-65
2023/06/24 05:56:40;;;;;;;11.40;4.20;;;;;;;25.40;100.00;99351.46;105215;1265;61542;-65
2023/06/24 05:59:08;;;;;;;17.40;6.20;;;;;;;25.35;100.00;99355.80;104105;1268;60257;-64
2023/06/24 06:01:35;;;;;;;12.00;5.00;;;;;;;25.35;100.00;99362.26;103827;1268;73812;-65
2023/06/24 06:04:02;;;;;;;6.50;4.30;;;;;;;25.43;100.00;99360.08;104199;1265;69631;-65
2023/06/24 06:06:30;;;;;;;8.10;3.90;;;;;;;25.49;100.00;99354.59;103913;1281;72313;-64
2023/06/24 06:08:57;;;;;;;11.00;4.30;;;;;;;25.57;100.00;99351.42;104004;1269;61688;-65
2023/06/24 06:11:24;;;;;;;10.60;4.00;;;;;;;25.61;100.00;99351.69;104000;1267;60035;-65
2023/06/24 06:13:52;;;;;;;8.90;4.40;;;;;;;25.66;100.00;99350.20;104232;1265;74946;-64
2023/06/24 06:16:19;;;;;;;8.90;4.70;;;;;;;25.69;100.00;99352.48;104058;1263;68285;-65
2023/06/24 06:18:46;;;;;;;7.10;4.20;;;;;;;25.77;100.00;99345.98;104157;1265;72534;-65
2023/06/24 06:21:13;;;;;;;13.50;4.80;;;;;;;25.82;100.00;99344.83;104101;1265;62146;-65
2023/06/24 06:23:40;;;;;;;9.90;4.00;;;;;;;25.88;100.00;99339.60;103997;1268;59749;-66
2023/06/24 06:26:07;;;;;;;10.60;4.10;;;;;;;25.90;100.00;99345.46;103851;1264;73852;-65
2023/06/24 06:28:36;;;;;;;7.50;3.90;;;;;;;25.91;100.00;99340.29;104076;1268;70361;-66
2023/06/24 06:31:03;;;;;;;15.40;4.60;;;;;;;25.98;100.00;99340.45;103886;1266;73124;-66
2023/06/24 06:33:30;;;;;;;5.20;3.80;;;;;;;26.05;100.00;99339.86;104214;1265;61797;-66
2023/06/24 06:35:58;;;;;;;8.70;4.80;;;;;;;26.10;100.00;99339.09;103941;1269;59945;-65
2023/06/24 06:38:25;;;;;;;6.90;4.40;;;;;;;26.14;100.00;99340.20;104035;1272;72074;-65
2023/06/24 06:40:52;;;;;;;8.10;4.20;;;;;;;26.22;100.00;99341.08;104067;1265;69437;-69
2023/06/24 06:43:19;;;;;;;12.80;4.40;;;;;;;26.26;100.00;99335.13;103923;1268;72557;-66
2023/06/24 06:45:46;;;;;;;10.50;4.80;;;;;;;26.32;100.00;99334.10;104151;1265;60286;-66
2023/06/24 06:48:12;;;;;;;9.80;5.50;;;;;;;26.39;100.00;99336.69;104109;1266;59766;-67
2023/06/24 06:50:39;;;;;;;10.50;4.30;;;;;;;26.45;100.00;99335.83;104048;1266;72486;-65
2023/06/24 06:53:07;;;;;;;6.70;4.30;;;;;;;26.56;100.00;99332.08;104076;1268;69965;-67
2023/06/24 06:55:34;;;;;;;;;;;;;;;26.59;100.00;99331.66;103949;1268;72543;-61
2023/06/24 06:58:04;;;;;;;10.60;4.50;;;;;;;26.59;100.00;99334.09;106474;1263;59797;-64
2023/06/24 07:00:32;;;;;;;8.80;4.30;;;;;;;26.58;100.00;99332.02;106912;1263;59398;-64
2023/06/24 07:02:59;;;;;;;9.60;4.40;;;;;;;26.60;100.00;99328.77;104564;1263;72876;-63
2023/06/24 07:05:26;;;;;;;14.30;4.40;;;;;;;26.66;100.00;99326.44;104462;1265;69422;-62
2023/06/24 07:07:55;;;;;;;10.20;4.40;;;;;;;26.70;100.00;99325.05;104125;1264;72438;-62
2023/06/24 07:10:21;;;;;;;8.30;4.50;;;;;;;26.77;100.00;99328.81;103808;1266;61682;-62
2023/06/24 07:12:51;;;;;;;7.80;4.30;;;;;;;26.75;100.00;99329.37;104002;1265;59371;-62
2023/06/24 07:15:19;;;;;;;12.70;4.20;;;;;;;26.75;100.00;99325.96;103923;1265;73404;-63
2023/06/24 07:17:46;;;;;;;7.90;4.10;;;;;;;26.70;100.00;99326.70;103981;1263;70024;-61
2023/06/24 07:20:13;;;;;;;12.50;4.60;;;;;;;26.61;100.00;99327.88;104038;1263;72602;-62
2023/06/24 07:22:40;;;;;;;8.70;4.60;;;;;;;26.53;100.00;99330.43;103963;1265;62046;-65
2023/06/24 07:25:07;;;;;;;9.70;4.50;;;;;;;26.54;100.00;99337.50;103929;1266;59760;-61
2023/06/24 07:27:35;;;;;;;6.70;4.30;;;;;;;26.58;100.00;99344.37;103976;1266;73518;-62
2023/06/24 07:30:04;;;;;;;8.20;3.90;;;;;;;26.66;100.00;99348.23;103862;1268;70072;-65
2023/06/24 07:32:31;;;;;;;9.10;4.40;;;;;;;26.74;100.00;99347.60;103920;1264;71802;-65
2023/06/24 07:34:58;;;;;;;14.50;4.70;;;;;;;26.77;100.00;99344.55;104031;1263;60913;-64
2023/06/24 07:37:25;;;;;;;14.90;4.70;;;;;;;26.76;100.00;99342.33;104284;1271;60212;-62
2023/06/24 07:39:52;;;;;;;8.10;4.80;;;;;;;26.82;100.00;99343.98;104351;1262;73395;-65
2023/06/24 07:42:19;;;;;;;7.10;4.00;;;;;;;26.87;100.00;99347.23;104453;1259;69612;-65
2023/06/24 07:44:46;;;;;;;11.50;4.90;;;;;;;26.82;100.00;99353.70;104425;1257;73429;-63
2023/06/24 07:47:13;;;;;;;6.30;4.50;;;;;;;26.78;100.00;99352.70;104359;1257;60033;-64
2023/06/24 07:49:40;;;;;;;10.40;4.40;;;;;;;26.81;100.00;99357.95;104458;1253;59890;-64
2023/06/24 07:52:07;;;;;;;10.60;5.50;;;;;;;26.90;100.00;99363.63;104603;1256;73338;-62
2023/06/24 07:54:34;;;;;;;12.20;4.80;;;;;;;26.94;100.00;99373.18;104462;1253;69344;-63
2023/06/24 07:57:01;;;;;;;15.40;5.10;;;;;;;26.95;100.00;99372.86;104868;1253;72436;-63
2023/06/24 07:59:29;;;;;;;9.70;4.80;;;;;;;26.96;100.00;99378.19;108385;1252;61554;-63
2023/06/24 08:01:56;;;;;;;12.60;4.20;;;;;;;27.07;100.00;99372.73;104792;1257;60433;-64
2023/06/24 08:04:23;;;;;;;8.20;4.50;;;;;;;27.21;100.00;99374.21;104335;1252;73510;-62
2023/06/24 08:06:50;;;;;;;8.40;4.60;;;;;;;27.35;100.00;99371.47;104382;1258;69875;-63
2023/06/24 08:09:17;;;;;;;8.20;5.00;;;;;;;27.35;100.00;99372.55;104367;1265;72430;-63
2023/06/24 08:11:46;;;;;;;7.60;4.50;;;;;;;27.52;100.00;99369.27;104266;1262;60317;-65
2023/06/24 08:14:14;;;;;;;9.90;5.20;;;;;;;27.65;100.00;99365.41;104460;1254;60110;-63
2023/06/24 08:16:41;;;;;;;9.90;5.20;;;;;;;27.83;100.00;99363.42;104326;1254;73321;-64
2023/06/24 08:19:08;;;;;;;8.90;4.60;;;;;;;27.97;100.00;99367.05;104404;1253;69507;-62
2023/06/24 08:21:37;;;;;;;;;;;;;;;28.06;100.00;99368.14;104272;1257;73599;-64
2023/06/24 08:24:05;;;;;;;11.20;5.60;;;;;;;28.10;100.00;99365.38;104434;1253;60018;-63
2023/06/24 08:26:32;;;;;;;;;;;;;;;28.09;100.00;99363.78;104566;1262;59629;-65
2023/06/24 08:28:59;;;;;;;8.40;5.20;;;;;;;28.01;100.00;99360.84;104801;1257;73683;-64
2023/06/24 08:31:29;;;;;;;11.90;5.50;;;;;;;27.94;100.00;99359.27;104392;1254;68971;-63
2023/06/24 08:33:59;;;;;;;8.60;5.40;;;;;;;27.84;100.00;99359.90;104375;1258;72459;-65
2023/06/24 08:36:27;;;;;;;10.50;5.10;;;;;;;27.82;100.00;99360.49;104308;1274;60478;-64
2023/06/24 08:38:54;;;;;;;11.30;5.40;;;;;;;27.87;100.00;99364.34;104330;1253;60539;-64
2023/06/24 08:41:21;;;;;;;7.10;5.40;;;;;;;28.00;100.00;99361.48;104643;1264;73557;-64
2023/06/24 08:43:47;;;;;;;7.50;5.20;;;;;;;28.18;100.00;99363.65;104160;1262;69586;-65
2023/06/24 08:46:15;;;;;;;8.70;5.90;;;;;;;28.27;100.00;99362.13;104441;1252;72210;-63
2023/06/24 08:48:42;;;;;;;9.90;5.70;;;;;;;28.21;100.00;99366.20;104456;1253;60849;-63
2023/06/24 08:51:10;;;;;;;8.00;5.30;;;;;;;28.21;100.00;99369.52;104569;1255;60444;-63
2023/06/24 08:53:37;;;;;;;14.30;5.30;;;;;;;28.21;100.00;99367.90;104337;1262;74290;-62
2023/06/24 08:56:04;;;;;;;7.00;5.80;;;;;;;28.22;100.00;99369.11;104332;1254;69396;-63
2023/06/24 08:58:31;;;;;;;7.30;5.30;;;;;;;28.24;100.00;99368.35;104362;1254;73017;-63
2023/06/24 09:00:58;;;;;;;7.50;5.40;;;;;;;28.19;100.00;99367.17;108414;1253;59969;-63
2023/06/24 09:03:25;;;;;;;10.70;5.20;;;;;;;28.18;100.00;99364.40;105339;1255;60952;-61
2023/06/24 09:05:52;;;;;;;6.90;5.40;;;;;;;28.16;100.00;99366.38;104618;1257;74000;-62
2023/06/24 09:08:21;;;;;;;9.70;5.60;;;;;;;28.12;100.00;99368.86;104509;1256;70028;-62
2023/06/24 09:10:58;;;;;;;9.30;5.30;;;;;;;28.03;100.00;99366.89;104767;1260;73412;-62
2023/06/24 09:13:36;;;;;;;8.90;5.10;;;;;;;27.89;100.00;99369.83;104352;1257;60567;-65
2023/06/24 09:16:14;;;;;;;8.30;5.60;;;;;;;27.74;100.00;99373.73;104437;1258;61843;-63
2023/06/24 09:18:41;;;;;;;8.80;5.10;;;;;;;27.67;100.00;99375.89;104301;1257;74620;-64
2023/06/24 09:21:10;;;;;;;13.40;5.20;;;;;;;27.53;100.00;99377.52;104267;1253;69999;-62
2023/06/24 09:23:38;;;;;;;9.00;5.10;;;;;;;27.51;100.00;99370.75;104553;1254;72961;-64
2023/06/24 09:26:05;;;;;;;;;;;;;;;27.50;100.00;99367.29;104396;1253;62026;-63
2023/06/24 09:28:32;;;;;;;7.80;5.10;;;;;;;27.45;100.00;99370.70;104352;1270;60032;-64
2023/06/24 09:31:08;;;;;;;11.10;5.60;;;;;;;27.44;100.00;99372.74;104327;1274;74146;-64
2023/06/24 09:33:47;;;;;;;9.80;5.70;;;;;;;27.51;100.00;99377.89;104394;1253;69933;-63
2023/06/24 09:36:14;;;;;;;8.60;5.30;;;;;;;27.43;100.00;99382.20;104457;1274;72891;-63
2023/06/24 09:38:44;;;;;;;;;;;;;;;27.39;100.00;99378.80;104381;1257;61518;-62
2023/06/24 09:41:12;;;;;;;10.00;5.20;;;;;;;27.39;100.00;99383.15;104592;1253;60511;-66
2023/06/24 09:43:44;;;;;;;6.70;5.90;;;;;;;27.35;100.00;99386.38;104200;1263;73885;-64
2023/06/24 09:46:11;;;;;;;7.40;5.80;;;;;;;27.41;100.00;99388.50;104474;1254;70151;-64
2023/06/24 09:48:39;;;;;;;8.50;5.70;;;;;;;27.39;100.00;99385.27;104455;1262;72570;-65
2023/06/24 09:51:06;;;;;;;10.90;5.00;;;;;;;27.33;100.00;99385.06;104433;1267;63017;-64
2023/06/24 09:53:34;;;;;;;11.00;5.30;;;;;;;27.41;100.00;99380.70;104372;1271;60042;-63
2023/06/24 09:56:03;;;;;;;8.60;5.90;;;;;;;27.50;100.00;99380.39;104324;1257;74033;-64
2023/06/24 09:58:36;;;;;;;9.20;5.50;;;;;;;27.49;100.00;99374.73;105781;1254;69494;-65
2023/06/24 10:01:04;;;;;;;9.30;5.70;;;;;;;27.58;100.00;99374.19;108443;1253;72549;-66
2023/06/24 10:03:33;;;;;;;7.70;5.40;;;;;;;27.67;100.00;99374.24;105530;1260;62530;-66
2023/06/24 10:06:01;;;;;;;9.20;5.60;;;;;;;27.73;100.00;99366.95;104495;1262;60576;-64
2023/06/24 10:08:30;;;;;;;8.60;6.10;;;;;;;27.84;100.00;99366.04;104464;1258;74963;-67
2023/06/24 10:10:59;;;;;;;6.30;4.90;;;;;;;27.78;100.00;99362.67;104614;1256;70133;-66
2023/06/24 10:13:26;;;;;;;9.20;6.00;;;;;;;27.79;100.00;99365.45;104428;1254;73391;-68
2023/06/24 10:15:55;;;;;;;9.80;6.00;;;;;;;27.81;100.00;99360.51;104378;1261;60552;-67
2023/06/24 10:18:31;;;;;;;11.50;5.80;;;;;;;27.92;100.00;99352.27;104315;1253;60552;-66
2023/06/24 10:20:58;;;;;;;9.40;6.00;;;;;;;27.99;100.00;99350.92;104387;1268;74327;-66
2023/06/24 10:23:31;;;;;;;8.30;4.60;;;;;;;28.11;100.00;99348.22;104264;1258;69987;-67
2023/06/24 10:25:58;;;;;;;8.30;6.40;;;;;;;28.24;100.00;99351.34;104711;1257;71806;-65
2023/06/24 10:28:25;;;;;;;;;;;;;;;28.34;100.00;99348.52;104401;1257;60463;-65
2023/06/24 10:30:59;;;;;;;;;;;;;;;28.45;100.00;99346.30;104549;1253;60585;-66
2023/06/24 10:33:25;;;;;;;7.20;5.50;;;;;;;28.49;100.00;99342.16;104424;1257;74223;-67
2023/06/24 10:35:52;;;;;;;10.70;6.20;;;;;;;28.49;100.00;99346.14;104450;1254;69244;-68
2023/06/24 10:38:19;;;;;;;8.30;5.40;;;;;;;28.68;100.00;99334.67;104413;1258;72607;-67
2023/06/24 10:40:47;;;;;;;9.30;5.80;;;;;;;28.79;100.00;99331.09;104390;1265;60624;-68
2023/06/24 10:43:26;;;;;;;8.20;6.00;;;;;;;28.87;100.00;99326.81;104465;1259;60537;-67
2023/06/24 10:45:54;;;;;;;10.10;5.70;;;;;;;29.00;100.00;99323.48;104444;1253;73676;-69
2023/06/24 10:48:22;;;;;;;10.30;6.10;;;;;;;29.19;100.00;99320.86;104324;1256;70275;-68
2023/06/24 10:50:51;;;;;;;10.30;6.20;;;;;;;29.33;100.00;99317.54;104348;1253;72652;-69
2023/06/24 10:53:18;;;;;;;13.40;6.30;;;;;;;29.37;100.00;99322.59;104544;1253;61046;-68
2023/06/24 10:55:46;;;;;;;8.90;6.60;;;;;;;29.28;100.00;99324.31;104407;1257;60541;-68
2023/06/24 10:58:15;;;;;;;9.20;6.10;;;;;;;29.33;100.00;99320.90;104387;1267;73330;-69
2023/06/24 11:00:43;;;;;;;9.10;6.60;;;;;;;29.37;100.00;99320.48;108025;1255;70831;-68
2023/06/24 11:03:14;;;;;;;9.50;5.70;;;;;;;29.51;100.00;99320.13;107434;1253;72456;-69
2023/06/24 11:05:42;;;;;;;12.50;6.80;;;;;;;29.49;100.00;99319.95;104583;1254;60892;-68
2023/06/24 11:08:09;;;;;;;11.80;6.80;;;;;;;29.54;100.00;99313.36;104665;1253;60555;-69
2023/06/24 11:10:48;;;;;;;8.90;6.80;;;;;;;29.70;100.00;99306.98;104529;1254;74941;-69
2023/06/24 11:13:19;;;;;;;7.60;6.40;;;;;;;29.83;100.00;99307.89;104850;1253;70163;-68
2023/06/24 11:15:46;;;;;;;8.80;6.20;;;;;;;29.97;100.00;99303.98;104395;1254;73512;-68
2023/06/24 11:18:13;;;;;;;8.40;6.50;;;;;;;30.08;100.00;99306.95;104385;1258;60478;-66
2023/06/24 11:20:40;;;;;;;11.70;6.50;;;;;;;30.16;100.00;99301.02;104441;1253;60082;-70
2023/06/24 11:23:10;;;;;;;8.80;7.00;;;;;;;30.25;100.00;99300.95;104313;1254;74096;-72
2023/06/24 11:25:41;;;;;;;10.20;6.40;;;;;;;30.37;100.00;99301.02;104366;1257;70182;-67
2023/06/24 11:28:18;;;;;;;10.30;6.50;;;;;;;30.45;100.00;99301.05;104360;1257;72742;-67